createdAt,value
2022-09-26T00:01:49.711Z,48.37
2022-09-26T00:06:54.214Z,45.17
2022-09-26T00:11:57.104Z,42.05
2022-09-26T00:16:59.855Z,41.38
2022-09-26T00:22:02.587Z,51.05
2022-09-26T00:27:05.258Z,45.03
2022-09-26T00:32:08.096Z,42.40
2022-09-26T00:37:12.613Z,42.75
2022-09-26T00:42:16.134Z,44.20
2022-09-26T00:47:33.287Z,42.47
2022-09-26T00:52:41.832Z,45.93
2022-09-26T00:57:51.833Z,45.05
2022-09-26T01:02:54.886Z,40.55
2022-09-26T01:07:58.990Z,43.28
2022-09-26T01:13:02.747Z,46.13
2022-09-26T01:18:07.761Z,42.87
2022-09-26T01:23:42.825Z,47.70
2022-09-26T01:29:06.835Z,38.92
2022-09-26T01:34:32.592Z,57.50
2022-09-26T01:39:43.381Z,50.38
2022-09-26T01:45:07.260Z,68.50
2022-09-26T01:50:30.209Z,74.43
2022-09-26T01:55:41.534Z,58.53
2022-09-26T02:00:48.252Z,60.95
2022-09-26T02:06:16.401Z,57.08
2022-09-26T02:11:20.043Z,50.27
2022-09-26T02:16:48.170Z,46.95
2022-09-26T02:21:51.664Z,52.13
2022-09-26T02:26:54.889Z,47.20
2022-09-26T02:32:06.514Z,47.00
2022-09-26T02:37:10.462Z,45.87
2022-09-26T02:42:39.616Z,47.25
2022-09-26T02:48:00.353Z,48.20
2022-09-26T02:53:02.930Z,43.10
2022-09-26T02:58:36.623Z,45.15
2022-09-26T03:04:22.261Z,38.77
2022-09-26T03:09:26.183Z,36.08
2022-09-26T03:14:31.753Z,40.47
2022-09-26T03:19:53.618Z,43.40
2022-09-26T03:24:59.633Z,37.72
2022-09-26T03:30:03.273Z,37.20
2022-09-26T03:35:06.882Z,42.38
2022-09-26T03:40:12.102Z,44.58
2022-09-26T03:45:32.872Z,37.97
2022-09-26T03:50:42.221Z,37.97
2022-09-26T03:55:46.577Z,36.47
2022-09-26T04:00:50.144Z,39.13
2022-09-26T04:05:54.694Z,44.00
2022-09-26T04:11:13.344Z,60.05
2022-09-26T04:16:17.396Z,43.88
2022-09-26T04:21:27.498Z,47.70
2022-09-26T04:26:30.510Z,78.53
2022-09-26T04:31:36.844Z,44.88
2022-09-26T04:36:45.723Z,40.50
2022-09-26T04:41:49.012Z,37.72
2022-09-26T04:46:51.827Z,47.50
2022-09-26T04:51:57.712Z,46.92
2022-09-26T04:57:01.407Z,37.42
2022-09-26T05:02:05.701Z,43.30
2022-09-26T05:07:18.633Z,42.72
2022-09-26T05:12:21.398Z,36.60
2022-09-26T05:17:27.319Z,40.10
2022-09-26T05:22:33.879Z,37.70
2022-09-26T05:27:37.854Z,38.70
2022-09-26T05:32:41.712Z,45.58
2022-09-26T05:37:44.363Z,36.40
2022-09-26T05:42:48.044Z,43.53
2022-09-26T05:47:51.113Z,41.28
2022-09-26T05:53:01.022Z,43.33
2022-09-26T05:58:05.928Z,40.47
2022-09-26T06:03:29.279Z,43.10
2022-09-26T06:08:44.386Z,41.20
2022-09-26T06:14:10.452Z,43.85
2022-09-26T06:19:14.046Z,46.10
2022-09-26T06:24:19.370Z,44.90
2022-09-26T06:29:24.947Z,44.40
2022-09-26T06:34:28.063Z,45.28
2022-09-26T06:39:37.221Z,45.75
2022-09-26T06:44:42.023Z,39.28
2022-09-26T06:49:51.053Z,37.50
2022-09-26T06:55:03.872Z,38.50
2022-09-26T07:00:10.878Z,35.83
2022-09-26T07:05:33.184Z,39.90
2022-09-26T07:10:37.855Z,40.08
2022-09-26T07:15:46.255Z,41.50
2022-09-26T07:21:09.663Z,37.57
2022-09-26T07:26:42.418Z,39.47
2022-09-26T07:31:45.803Z,37.03
2022-09-26T07:37:12.271Z,36.13
2022-09-26T07:42:16.187Z,42.40
2022-09-26T07:47:37.549Z,45.80
2022-09-26T07:52:48.713Z,46.92
2022-09-26T07:57:58.231Z,37.72
2022-09-26T08:03:23.058Z,42.65
2022-09-26T08:08:26.149Z,41.90
2022-09-26T08:13:35.086Z,42.87
2022-09-26T08:18:56.343Z,40.28
2022-09-26T08:24:01.340Z,42.72
2022-09-26T08:29:23.775Z,40.78
2022-09-26T08:34:33.833Z,44.13
2022-09-26T08:40:12.782Z,48.03
2022-09-26T08:46:07.137Z,46.65
2022-09-26T08:51:41.683Z,49.88
2022-09-26T08:56:55.781Z,42.75
2022-09-26T09:02:05.301Z,43.40
2022-09-26T09:07:26.571Z,44.23
2022-09-26T09:12:37.961Z,46.50
2022-09-26T09:18:39.559Z,44.97
2022-09-26T09:24:19.307Z,48.17
2022-09-26T09:29:49.622Z,44.13
2022-09-26T09:35:25.764Z,48.57
2022-09-26T09:41:12.262Z,53.70
2022-09-26T09:46:28.972Z,46.38
2022-09-26T09:51:45.040Z,42.45
2022-09-26T09:57:08.419Z,44.58
2022-09-26T10:02:37.117Z,47.60
2022-09-26T10:07:47.964Z,43.80
2022-09-26T10:13:11.807Z,44.58
2022-09-26T10:19:03.727Z,36.72
2022-09-26T10:24:47.737Z,34.97
2022-09-26T10:30:00.853Z,33.47
2022-09-26T10:35:24.507Z,29.50
2022-09-26T10:40:46.339Z,20.30
2022-09-26T10:45:55.454Z,24.30
2022-09-26T10:51:19.578Z,24.45
2022-09-26T10:56:40.197Z,21.60
2022-09-26T11:01:56.804Z,21.70
2022-09-26T11:07:00.226Z,22.75
2022-09-26T11:12:26.139Z,14.18
2022-09-26T11:17:49.736Z,17.15
2022-09-26T11:23:12.808Z,13.97
2022-09-26T11:28:22.266Z,13.50
2022-09-26T11:34:05.122Z,14.10
2022-09-26T11:39:53.302Z,11.63
2022-09-26T11:45:04.993Z,10.23
2022-09-26T11:50:40.330Z,8.67
2022-09-26T11:56:31.317Z,9.13
2022-09-26T12:01:59.929Z,8.43
2022-09-26T12:07:17.815Z,6.78
2022-09-26T12:12:50.368Z,7.15
2022-09-26T12:18:04.159Z,8.87
2022-09-26T12:23:14.607Z,7.15
2022-09-26T12:28:29.724Z,7.30
2022-09-26T12:33:45.849Z,7.80
2022-09-26T12:38:57.629Z,9.10
2022-09-26T12:44:32.313Z,9.53
2022-09-26T12:49:52.268Z,7.50
2022-09-26T12:55:24.560Z,8.88
2022-09-26T13:00:39.479Z,9.00
2022-09-26T13:05:57.169Z,9.15
2022-09-26T13:11:21.203Z,7.60
2022-09-26T13:16:46.707Z,8.35
2022-09-26T13:22:03.909Z,7.53
2022-09-26T13:27:18.227Z,8.43
2022-09-26T13:32:40.853Z,9.15
2022-09-26T13:37:51.403Z,8.67
2022-09-26T13:43:32.245Z,8.30
2022-09-26T13:48:49.323Z,8.77
2022-09-26T13:54:17.173Z,11.20
2022-09-26T13:59:20.127Z,8.80
2022-09-26T14:04:41.124Z,10.60
2022-09-26T14:10:16.798Z,9.40
2022-09-26T14:15:28.713Z,8.30
2022-09-26T14:20:44.693Z,8.75
2022-09-26T14:25:53.942Z,8.10
2022-09-26T14:31:13.029Z,9.40
2022-09-26T14:36:33.241Z,8.60
2022-09-26T14:41:36.832Z,7.97
2022-09-26T14:46:41.932Z,8.60
2022-09-26T14:51:49.701Z,8.75
2022-09-26T14:57:02.041Z,8.30
2022-09-26T15:02:14.320Z,8.75
2022-09-26T15:07:22.487Z,7.30
2022-09-26T15:12:51.430Z,7.22
2022-09-26T15:18:02.355Z,7.30
2022-09-26T15:23:41.569Z,9.07
2022-09-26T15:28:48.794Z,9.60
2022-09-26T15:33:55.900Z,7.45
2022-09-26T15:38:59.381Z,7.35
2022-09-26T15:44:04.478Z,6.47
2022-09-26T15:49:17.250Z,6.93
2022-09-26T15:54:29.681Z,7.82
2022-09-26T15:59:41.394Z,10.23
2022-09-26T16:04:49.660Z,8.45
2022-09-26T16:09:53.063Z,8.13
2022-09-26T16:15:13.840Z,8.53
2022-09-26T16:20:16.666Z,8.60
2022-09-26T16:25:19.446Z,11.27
2022-09-26T16:30:28.450Z,9.18
2022-09-26T16:35:35.710Z,8.30
2022-09-26T16:40:39.029Z,13.70
2022-09-26T16:45:49.801Z,12.18
2022-09-26T16:51:39.539Z,10.02
2022-09-26T16:56:44.933Z,11.23
2022-09-26T17:01:54.180Z,11.07
2022-09-26T17:07:02.971Z,11.00
2022-09-26T17:12:19.615Z,13.20
2022-09-26T17:17:25.701Z,14.07
2022-09-26T17:22:29.029Z,14.60
2022-09-26T17:27:34.523Z,13.32
2022-09-26T17:32:39.781Z,12.90
2022-09-26T17:37:42.782Z,11.68
2022-09-26T17:42:47.030Z,10.90
2022-09-26T17:47:49.949Z,10.85
2022-09-26T17:52:54.477Z,11.50
2022-09-26T17:57:58.597Z,38.77
2022-09-26T18:03:04.391Z,17.80
2022-09-26T18:08:27.143Z,14.50
2022-09-26T18:13:34.119Z,11.88
2022-09-26T18:18:38.014Z,14.15
2022-09-26T18:23:51.983Z,13.27
2022-09-26T18:28:57.152Z,11.77
2022-09-26T18:34:03.297Z,16.85
2022-09-26T18:39:06.563Z,10.32
2022-09-26T18:44:17.444Z,14.15
2022-09-26T18:49:21.086Z,14.20
2022-09-26T18:54:24.960Z,12.65
2022-09-26T18:59:31.314Z,11.52
2022-09-26T19:04:34.860Z,12.10
2022-09-26T19:09:38.217Z,10.73
2022-09-26T19:14:41.210Z,11.27
2022-09-26T19:19:44.065Z,10.38
2022-09-26T19:24:54.030Z,18.25
2022-09-26T19:30:13.761Z,16.02
2022-09-26T19:35:39.602Z,22.90
2022-09-26T19:40:47.723Z,18.73
2022-09-26T19:45:55.221Z,15.93
2022-09-26T19:50:58.780Z,18.48
2022-09-26T19:56:01.750Z,13.55
2022-09-26T20:01:18.246Z,14.93
2022-09-26T20:06:24.905Z,13.20
2022-09-26T20:11:28.815Z,14.15
2022-09-26T20:16:42.824Z,28.05
2022-09-26T20:21:45.799Z,12.77
2022-09-26T20:26:48.889Z,14.30
2022-09-26T20:31:51.660Z,17.53
2022-09-26T20:36:54.420Z,13.65
2022-09-26T20:41:57.624Z,13.77
2022-09-26T20:47:04.799Z,14.40
2022-09-26T20:52:11.368Z,13.50
2022-09-26T20:57:17.432Z,13.27
2022-09-26T21:02:38.694Z,14.23
2022-09-26T21:07:41.779Z,13.07
2022-09-26T21:12:44.629Z,13.82
2022-09-26T21:17:47.922Z,14.38
2022-09-26T21:22:50.920Z,14.83
2022-09-26T21:27:58.169Z,19.58
2022-09-26T21:33:01.398Z,18.40
2022-09-26T21:38:05.500Z,13.00
2022-09-26T21:43:16.988Z,58.35
2022-09-26T21:48:19.737Z,168.23
2022-09-26T21:53:32.760Z,31.25
2022-09-26T21:58:38.498Z,42.17
2022-09-26T22:03:42.029Z,23.10
2022-09-26T22:08:44.709Z,24.08
2022-09-26T22:13:47.608Z,35.43
2022-09-26T22:18:50.338Z,18.17
2022-09-26T22:23:53.104Z,20.92
2022-09-26T22:28:55.759Z,22.65
2022-09-26T22:33:59.594Z,18.88
2022-09-26T22:39:02.301Z,15.40
2022-09-26T22:44:05.020Z,16.98
2022-09-26T22:49:07.761Z,21.63
2022-09-26T22:54:10.587Z,13.80
2022-09-26T22:59:13.810Z,14.00
2022-09-26T23:04:16.623Z,12.90
2022-09-26T23:09:19.538Z,14.38
2022-09-26T23:14:22.215Z,18.27
2022-09-26T23:19:25.008Z,15.07
2022-09-26T23:24:27.709Z,13.52
2022-09-26T23:29:30.438Z,17.07
2022-09-26T23:34:33.544Z,13.00
2022-09-26T23:39:36.218Z,12.15
2022-09-26T23:44:38.900Z,12.93
2022-09-26T23:49:41.611Z,12.18
2022-09-26T23:54:44.384Z,13.97
2022-09-26T23:59:47.069Z,12.90
